Time;durP1;ratioP1;P1;durP2;ratioP2;P2;SDS_P1;SDS_P2;PMS_P1;PMS_P2;Temp;Humidity;BMP_temperature;BMP_pressure;BME280_temperature;BME280_humidity;BME280_pressure;Samples;Min_cycle;Max_cycle;Signal;HPM_P1;HPM_P2
2022/09/16 00:01:27;;;;;;;2.40;1.90;;;;;;;;;;5076931;28;20185;-76
2022/09/16 00:03:54;;;;;;;3.47;1.97;;;;;;;;;;5082553;28;20319;-76
2022/09/16 00:06:30;;;;;;;2.73;1.80;;;;;;;;;;5089255;28;20173;-75
2022/09/16 00:08:57;;;;;;;3.17;1.80;;;;;;;;;;5087214;28;20219;-75
2022/09/16 00:11:23;;;;;;;3.63;1.67;;;;;;;;;;5087297;28;20585;-75
2022/09/16 00:13:49;;;;;;;3.43;2.00;;;;;;;;;;5079980;28;20559;-75
2022/09/16 00:16:21;;;;;;;3.37;2.07;;;;;;;;;;5077461;28;20284;-76
2022/09/16 00:18:48;;;;;;;3.03;2.00;;;;;;;;;;5087619;28;20215;-76
2022/09/16 00:21:14;;;;;;;2.13;1.93;;;;;;;;;;5081198;28;20722;-75
2022/09/16 00:23:40;;;;;;;2.17;1.83;;;;;;;;;;5085090;28;20219;-75
2022/09/16 00:26:06;;;;;;;3.13;1.87;;;;;;;;;;5066173;28;20182;-75
2022/09/16 00:28:33;;;;;;;3.47;1.97;;;;;;;;;;5084521;28;20188;-75
2022/09/16 00:31:00;;;;;;;3.93;1.80;;;;;;;;;;5087698;28;20180;-75
2022/09/16 00:33:27;;;;;;;3.00;2.00;;;;;;;;;;5088337;28;20187;-75
2022/09/16 00:36:04;;;;;;;2.50;2.10;;;;;;;;;;5092855;28;20246;-75
2022/09/16 00:38:30;;;;;;;3.17;2.00;;;;;;;;;;5085070;28;20184;-75
2022/09/16 00:40:56;;;;;;;2.50;1.83;;;;;;;;;;5094386;28;20189;-75
2022/09/16 00:43:22;;;;;;;2.23;1.80;;;;;;;;;;5088472;28;20212;-76
2022/09/16 00:45:50;;;;;;;3.60;2.17;;;;;;;;;;5089778;28;20193;-75
2022/09/16 00:48:20;;;;;;;3.50;2.30;;;;;;;;;;5089815;28;20658;-75
2022/09/16 00:50:50;;;;;;;3.90;2.30;;;;;;;;;;5085156;28;20193;-75
2022/09/16 00:53:38;;;;;;;2.53;1.80;;;;;;;;;;5085832;28;20611;-75
2022/09/16 00:56:06;;;;;;;2.87;2.00;;;;;;;;;;5088129;28;20189;-76
2022/09/16 00:58:35;;;;;;;3.27;2.13;;;;;;;;;;5090871;28;20564;-74
2022/09/16 01:01:03;;;;;;;3.70;2.10;;;;;;;;;;5095740;28;20179;-75
2022/09/16 01:03:31;;;;;;;4.20;2.20;;;;;;;;;;5092282;28;20207;-75
2022/09/16 01:05:57;;;;;;;4.73;2.27;;;;;;;;;;5089357;28;20176;-74
2022/09/16 01:08:23;;;;;;;4.73;2.43;;;;;;;;;;5085937;28;20187;-75
2022/09/16 01:10:50;;;;;;;3.70;2.30;;;;;;;;;;5087045;28;20185;-75
2022/09/16 01:13:16;;;;;;;4.23;2.30;;;;;;;;;;5084610;28;20180;-75
2022/09/16 01:15:57;;;;;;;3.97;2.03;;;;;;;;;;5086712;28;20186;-75
2022/09/16 01:18:24;;;;;;;4.17;1.90;;;;;;;;;;5079547;28;20204;-75
2022/09/16 01:21:00;;;;;;;3.83;2.10;;;;;;;;;;5081512;28;20231;-76
2022/09/16 01:23:26;;;;;;;5.97;2.20;;;;;;;;;;5089055;28;20709;-76
2022/09/16 01:26:11;;;;;;;3.37;1.90;;;;;;;;;;5088487;28;20271;-75
2022/09/16 01:28:43;;;;;;;4.93;2.10;;;;;;;;;;5084596;28;20647;-75
2022/09/16 01:31:17;;;;;;;5.23;2.20;;;;;;;;;;5079909;28;20261;-75
2022/09/16 01:33:54;;;;;;;4.03;1.93;;;;;;;;;;5080313;28;20181;-76
2022/09/16 01:36:41;;;;;;;3.57;1.83;;;;;;;;;;5074979;28;20732;-75
2022/09/16 01:39:13;;;;;;;3.53;1.90;;;;;;;;;;5079737;28;20232;-75
2022/09/16 01:42:00;;;;;;;4.13;2.27;;;;;;;;;;5083723;28;20563;-76
2022/09/16 01:44:32;;;;;;;4.40;2.20;;;;;;;;;;5081772;28;20216;-75
2022/09/16 01:47:03;;;;;;;2.70;1.90;;;;;;;;;;5083808;28;20678;-75
2022/09/16 01:49:30;;;;;;;4.00;2.27;;;;;;;;;;5080899;28;20213;-75
2022/09/16 01:52:08;;;;;;;3.90;2.33;;;;;;;;;;5086963;28;20608;-75
2022/09/16 01:54:34;;;;;;;3.17;2.03;;;;;;;;;;5087538;28;20275;-75
2022/09/16 01:57:03;;;;;;;3.47;2.03;;;;;;;;;;5078341;28;20189;-76
2022/09/16 01:59:40;;;;;;;4.27;2.30;;;;;;;;;;5095151;28;20695;-75
2022/09/16 02:02:07;;;;;;;3.67;2.10;;;;;;;;;;5077586;28;20215;-74
2022/09/16 02:04:37;;;;;;;2.90;2.10;;;;;;;;;;5081222;28;20212;-76
2022/09/16 02:07:06;;;;;;;3.07;2.00;;;;;;;;;;5084888;28;20856;-75
2022/09/16 02:09:34;;;;;;;3.37;2.00;;;;;;;;;;5086648;28;20196;-76
2022/09/16 02:12:04;;;;;;;4.83;2.30;;;;;;;;;;5081636;28;20310;-75
2022/09/16 02:14:33;;;;;;;3.83;2.27;;;;;;;;;;5082258;28;20522;-75
2022/09/16 02:16:59;;;;;;;4.73;1.90;;;;;;;;;;5082931;28;20824;-75
2022/09/16 02:19:27;;;;;;;3.27;2.27;;;;;;;;;;5082044;28;20831;-75
2022/09/16 02:21:55;;;;;;;6.33;2.20;;;;;;;;;;5082623;28;20184;-75
2022/09/16 02:24:22;;;;;;;7.83;2.30;;;;;;;;;;5079482;28;20212;-76
2022/09/16 02:26:52;;;;;;;6.10;2.30;;;;;;;;;;5081503;28;20259;-75
2022/09/16 02:29:23;;;;;;;4.40;2.03;;;;;;;;;;5085369;28;20261;-75
2022/09/16 02:31:51;;;;;;;3.13;1.97;;;;;;;;;;5083632;28;20186;-75
2022/09/16 02:34:24;;;;;;;3.53;2.20;;;;;;;;;;5076024;28;20545;-75
2022/09/16 02:36:54;;;;;;;5.80;2.27;;;;;;;;;;5081207;28;20181;-75
2022/09/16 02:39:24;;;;;;;4.07;2.00;;;;;;;;;;5085746;28;20227;-76
2022/09/16 02:41:50;;;;;;;3.50;2.03;;;;;;;;;;5085892;28;20192;-74
2022/09/16 02:44:16;;;;;;;4.47;2.20;;;;;;;;;;5083799;28;20217;-76
2022/09/16 02:46:42;;;;;;;2.53;2.00;;;;;;;;;;5088516;28;20177;-76
2022/09/16 02:49:13;;;;;;;3.97;2.30;;;;;;;;;;5090315;28;20271;-76
2022/09/16 02:51:39;;;;;;;5.03;2.10;;;;;;;;;;5102386;28;20194;-76
2022/09/16 02:54:10;;;;;;;2.97;2.20;;;;;;;;;;5088904;28;20216;-75
2022/09/16 02:56:38;;;;;;;3.70;2.27;;;;;;;;;;5082911;28;20195;-75
2022/09/16 02:59:06;;;;;;;5.63;2.60;;;;;;;;;;5084183;28;20196;-75
2022/09/16 03:01:33;;;;;;;4.00;2.53;;;;;;;;;;5087222;28;20204;-75
2022/09/16 03:03:59;;;;;;;2.93;2.60;;;;;;;;;;5090779;28;20279;-76
2022/09/16 03:06:27;;;;;;;4.20;2.60;;;;;;;;;;5078490;28;20201;-76
2022/09/16 03:08:58;;;;;;;3.50;2.40;;;;;;;;;;5069282;28;20265;-75
2022/09/16 03:11:39;;;;;;;3.37;2.50;;;;;;;;;;5084633;28;20184;-75
2022/09/16 03:14:24;;;;;;;3.67;2.70;;;;;;;;;;5086767;28;20188;-75
2022/09/16 03:16:54;;;;;;;4.70;2.60;;;;;;;;;;5088629;28;20670;-75
2022/09/16 03:19:59;;;;;;;3.17;2.53;;;;;;;;;;5083105;28;20275;-75
2022/09/16 03:22:43;;;;;;;3.67;2.47;;;;;;;;;;5051828;28;20788;-75
2022/09/16 03:25:12;;;;;;;4.33;2.33;;;;;;;;;;5045463;28;20583;-75
2022/09/16 03:27:42;;;;;;;3.33;2.17;;;;;;;;;;5073627;28;20200;-75
2022/09/16 03:30:10;;;;;;;3.23;2.50;;;;;;;;;;5080916;28;20286;-75
2022/09/16 03:32:38;;;;;;;3.67;2.50;;;;;;;;;;5086810;28;20184;-75
2022/09/16 03:35:09;;;;;;;4.13;2.33;;;;;;;;;;5088950;28;20185;-75
2022/09/16 03:37:36;;;;;;;3.50;2.57;;;;;;;;;;5084764;28;20184;-75
2022/09/16 03:40:05;;;;;;;5.13;2.50;;;;;;;;;;5084387;28;20560;-76
2022/09/16 03:42:31;;;;;;;3.27;2.60;;;;;;;;;;5085016;28;20245;-76
2022/09/16 03:44:57;;;;;;;5.80;2.87;;;;;;;;;;5084613;28;20263;-76
2022/09/16 03:47:23;;;;;;;3.90;2.70;;;;;;;;;;5090171;28;20187;-75
2022/09/16 03:49:50;;;;;;;3.70;2.40;;;;;;;;;;5085760;28;20192;-76
2022/09/16 03:52:18;;;;;;;3.00;2.30;;;;;;;;;;5086828;28;20695;-75
2022/09/16 03:54:45;;;;;;;5.27;2.47;;;;;;;;;;5083313;28;20552;-75
2022/09/16 03:57:11;;;;;;;4.63;2.33;;;;;;;;;;5086049;28;20663;-76
2022/09/16 03:59:37;;;;;;;3.50;2.50;;;;;;;;;;5087710;28;20204;-75
2022/09/16 04:02:03;;;;;;;4.50;2.40;;;;;;;;;;5084768;28;20209;-75
2022/09/16 04:04:29;;;;;;;5.20;2.20;;;;;;;;;;5064447;28;20261;-75
2022/09/16 04:06:55;;;;;;;3.83;2.20;;;;;;;;;;5091651;28;20655;-76
2022/09/16 04:09:21;;;;;;;3.70;1.93;;;;;;;;;;5086828;28;20196;-76
2022/09/16 04:11:48;;;;;;;6.67;2.30;;;;;;;;;;5077110;28;20180;-75
2022/09/16 04:14:14;;;;;;;3.50;2.50;;;;;;;;;;5087247;28;20185;-75
2022/09/16 04:16:40;;;;;;;6.67;2.50;;;;;;;;;;5087102;28;20222;-76
2022/09/16 04:19:06;;;;;;;3.43;2.60;;;;;;;;;;5085102;28;20652;-76
2022/09/16 04:21:33;;;;;;;4.70;2.20;;;;;;;;;;5085245;28;20235;-75
2022/09/16 04:23:59;;;;;;;4.33;2.37;;;;;;;;;;5084945;28;20216;-76
2022/09/16 04:26:25;;;;;;;5.00;2.60;;;;;;;;;;5084905;28;20444;-75
2022/09/16 04:28:53;;;;;;;3.90;2.20;;;;;;;;;;5086860;28;20197;-76
2022/09/16 04:31:19;;;;;;;3.17;2.00;;;;;;;;;;5086117;28;20184;-75
2022/09/16 04:33:46;;;;;;;3.90;1.90;;;;;;;;;;5085703;28;20188;-76
2022/09/16 04:36:13;;;;;;;3.63;1.97;;;;;;;;;;5093475;28;20260;-80
2022/09/16 04:38:40;;;;;;;5.80;1.90;;;;;;;;;;5077021;28;20196;-78
2022/09/16 04:41:07;;;;;;;4.07;2.20;;;;;;;;;;5087860;28;20185;-82
2022/09/16 04:43:33;;;;;;;3.53;2.03;;;;;;;;;;5082305;28;20205;-78
2022/09/16 04:46:00;;;;;;;2.63;1.77;;;;;;;;;;5048656;28;20235;-80
2022/09/16 04:48:26;;;;;;;4.43;2.15;;;;;;;;;;5089370;28;20419;-77
2022/09/16 04:50:53;;;;;;;3.00;1.80;;;;;;;;;;5061746;28;20192;-77
2022/09/16 04:53:20;;;;;;;3.53;1.93;;;;;;;;;;5083188;28;20169;-77
2022/09/16 04:55:47;;;;;;;3.27;1.73;;;;;;;;;;5090041;28;20542;-76
2022/09/16 04:58:13;;;;;;;3.17;2.00;;;;;;;;;;5083662;28;20187;-76
2022/09/16 05:00:39;;;;;;;4.20;2.00;;;;;;;;;;5080535;28;20246;-77
2022/09/16 05:03:06;;;;;;;4.50;1.87;;;;;;;;;;5063369;28;20200;-77
2022/09/16 05:05:32;;;;;;;4.27;2.00;;;;;;;;;;5081630;28;20247;-77
2022/09/16 05:07:58;;;;;;;4.10;2.00;;;;;;;;;;5081576;28;20188;-78
2022/09/16 05:10:27;;;;;;;2.47;1.63;;;;;;;;;;5082432;28;20329;-76
2022/09/16 05:12:53;;;;;;;3.97;1.90;;;;;;;;;;5088835;28;20180;-78
2022/09/16 05:15:20;;;;;;;8.53;2.20;;;;;;;;;;5086169;28;20172;-76
2022/09/16 05:17:46;;;;;;;4.47;2.40;;;;;;;;;;5078038;28;20172;-77
2022/09/16 05:20:13;;;;;;;2.73;2.10;;;;;;;;;;5083382;28;20278;-76
2022/09/16 05:22:39;;;;;;;4.13;2.43;;;;;;;;;;5081765;28;20188;-77
2022/09/16 05:25:06;;;;;;;5.53;2.50;;;;;;;;;;5081707;28;20208;-76
2022/09/16 05:27:32;;;;;;;3.60;2.33;;;;;;;;;;5084883;28;20177;-77
2022/09/16 05:29:59;;;;;;;3.30;2.10;;;;;;;;;;5084135;28;20196;-77
2022/09/16 05:32:26;;;;;;;3.97;2.00;;;;;;;;;;5075426;28;20245;-77
2022/09/16 05:34:52;;;;;;;3.67;2.00;;;;;;;;;;5083102;28;20185;-76
2022/09/16 05:37:19;;;;;;;4.03;1.90;;;;;;;;;;5075116;28;20204;-77
2022/09/16 05:39:45;;;;;;;4.17;2.00;;;;;;;;;;5084283;28;20284;-76
2022/09/16 05:42:11;;;;;;;6.00;2.40;;;;;;;;;;5086183;28;20173;-77
2022/09/16 05:44:37;;;;;;;3.00;2.20;;;;;;;;;;5076953;28;20320;-76
2022/09/16 05:47:03;;;;;;;5.33;2.20;;;;;;;;;;5075572;28;20178;-75
2022/09/16 05:49:30;;;;;;;3.63;1.90;;;;;;;;;;5080873;28;20275;-76
2022/09/16 05:51:56;;;;;;;3.77;2.00;;;;;;;;;;5086014;28;20588;-78
2022/09/16 05:54:23;;;;;;;3.00;2.00;;;;;;;;;;5075936;28;20191;-78
2022/09/16 05:56:50;;;;;;;3.23;2.30;;;;;;;;;;5076608;28;20185;-76
2022/09/16 05:59:17;;;;;;;3.17;2.27;;;;;;;;;;5084709;28;20211;-75
2022/09/16 06:01:43;;;;;;;3.87;1.80;;;;;;;;;;5083281;28;20242;-75
2022/09/16 06:04:11;;;;;;;3.17;2.00;;;;;;;;;;5078090;28;20219;-76
2022/09/16 06:06:38;;;;;;;4.17;2.27;;;;;;;;;;5081191;28;20890;-76
2022/09/16 06:09:04;;;;;;;2.43;1.90;;;;;;;;;;5085258;28;20231;-75
2022/09/16 06:11:31;;;;;;;3.50;1.80;;;;;;;;;;5084783;28;20204;-75
2022/09/16 06:13:58;;;;;;;3.17;2.00;;;;;;;;;;5085121;28;20184;-75
2022/09/16 06:16:25;;;;;;;3.40;1.90;;;;;;;;;;5077212;28;20191;-76
2022/09/16 06:18:52;;;;;;;4.63;2.13;;;;;;;;;;5081904;28;20771;-76
2022/09/16 06:21:18;;;;;;;3.47;2.27;;;;;;;;;;5085842;28;20595;-75
2022/09/16 06:23:44;;;;;;;4.80;1.90;;;;;;;;;;5087319;28;20258;-75
2022/09/16 06:26:12;;;;;;;3.57;2.20;;;;;;;;;;5081462;28;20165;-75
2022/09/16 06:28:39;;;;;;;3.47;2.10;;;;;;;;;;5085103;28;20184;-75
2022/09/16 06:31:08;;;;;;;4.63;2.57;;;;;;;;;;5089576;28;20180;-75
2022/09/16 06:33:34;;;;;;;3.67;2.30;;;;;;;;;;5087321;28;20240;-75
2022/09/16 06:36:11;;;;;;;5.67;2.90;;;;;;;;;;5086056;28;20275;-76
2022/09/16 06:38:37;;;;;;;5.63;2.63;;;;;;;;;;5082533;28;20818;-78
2022/09/16 06:41:05;;;;;;;5.33;2.40;;;;;;;;;;5085909;28;20591;-78
2022/09/16 06:43:31;;;;;;;5.00;2.70;;;;;;;;;;5086387;28;20291;-75
2022/09/16 06:45:58;;;;;;;6.10;3.03;;;;;;;;;;5088773;28;20184;-75
2022/09/16 06:48:25;;;;;;;4.93;2.70;;;;;;;;;;5079874;28;20181;-75
2022/09/16 06:50:57;;;;;;;5.47;2.57;;;;;;;;;;5087869;28;20851;-76
2022/09/16 06:53:24;;;;;;;5.17;3.17;;;;;;;;;;5086712;28;20288;-75
2022/09/16 06:55:50;;;;;;;6.03;2.50;;;;;;;;;;5087985;28;20177;-76
2022/09/16 06:58:16;;;;;;;5.63;2.50;;;;;;;;;;5089014;28;20654;-75
2022/09/16 07:00:42;;;;;;;4.77;2.50;;;;;;;;;;5085416;28;20209;-75
2022/09/16 07:03:08;;;;;;;4.73;2.40;;;;;;;;;;5087964;28;20189;-75
2022/09/16 07:05:34;;;;;;;4.40;2.30;;;;;;;;;;5087633;28;20210;-75
2022/09/16 07:08:01;;;;;;;4.60;2.30;;;;;;;;;;5079816;28;20214;-75
2022/09/16 07:10:27;;;;;;;3.30;1.97;;;;;;;;;;5088510;28;20704;-75
2022/09/16 07:12:53;;;;;;;3.10;2.13;;;;;;;;;;5088928;28;20180;-75
2022/09/16 07:15:19;;;;;;;4.47;2.23;;;;;;;;;;5069408;28;20193;-76
2022/09/16 07:17:46;;;;;;;4.70;2.50;;;;;;;;;;5082127;28;20195;-76
2022/09/16 07:20:12;;;;;;;2.87;1.83;;;;;;;;;;5085537;28;20243;-76
2022/09/16 07:22:38;;;;;;;6.37;2.20;;;;;;;;;;5087257;28;20796;-76
2022/09/16 07:25:04;;;;;;;2.97;1.87;;;;;;;;;;5086348;28;20235;-75
2022/09/16 07:27:31;;;;;;;4.50;2.27;;;;;;;;;;5085551;28;20238;-75
2022/09/16 07:29:57;;;;;;;3.67;2.20;;;;;;;;;;5086752;28;20202;-76
2022/09/16 07:32:23;;;;;;;5.73;2.10;;;;;;;;;;5086358;28;20307;-78
2022/09/16 07:34:50;;;;;;;6.63;2.20;;;;;;;;;;5087254;28;20268;-78
2022/09/16 07:37:17;;;;;;;4.20;2.10;;;;;;;;;;5088036;28;20192;-78
2022/09/16 07:39:44;;;;;;;4.57;2.10;;;;;;;;;;5087631;28;20204;-79
2022/09/16 07:42:10;;;;;;;5.93;1.80;;;;;;;;;;5085381;28;20841;-78
2022/09/16 07:44:36;;;;;;;5.43;2.33;;;;;;;;;;5085972;28;20232;-78
2022/09/16 07:47:03;;;;;;;5.57;2.40;;;;;;;;;;5086466;28;20185;-79
2022/09/16 07:49:29;;;;;;;5.53;2.10;;;;;;;;;;5080422;28;20998;-78
2022/09/16 07:51:55;;;;;;;3.37;1.70;;;;;;;;;;5087208;28;20910;-75
2022/09/16 07:54:21;;;;;;;7.10;2.23;;;;;;;;;;5084767;28;20277;-75
2022/09/16 07:56:48;;;;;;;2.77;1.77;;;;;;;;;;5083432;28;20192;-75
2022/09/16 07:59:16;;;;;;;5.83;1.83;;;;;;;;;;5085861;28;20200;-78
2022/09/16 08:01:42;;;;;;;4.63;1.70;;;;;;;;;;5085536;28;20180;-78
2022/09/16 08:04:08;;;;;;;4.40;1.53;;;;;;;;;;5087038;28;20589;-78
2022/09/16 08:06:37;;;;;;;5.67;1.97;;;;;;;;;;5086663;28;20169;-76
2022/09/16 08:09:03;;;;;;;6.03;2.10;;;;;;;;;;5085713;28;20208;-76
2022/09/16 08:11:29;;;;;;;3.20;1.77;;;;;;;;;;5088369;28;20176;-73
2022/09/16 08:13:58;;;;;;;4.67;1.70;;;;;;;;;;5082629;28;20785;-75
2022/09/16 08:16:24;;;;;;;1.90;1.40;;;;;;;;;;5087038;28;20189;-75
2022/09/16 08:18:53;;;;;;;4.37;1.60;;;;;;;;;;5084369;28;20236;-76
2022/09/16 08:21:22;;;;;;;3.97;1.30;;;;;;;;;;5078025;28;20208;-75
2022/09/16 08:23:48;;;;;;;2.63;1.50;;;;;;;;;;5082417;28;20565;-75
2022/09/16 08:26:16;;;;;;;4.23;1.73;;;;;;;;;;5079768;28;20185;-79
2022/09/16 08:28:43;;;;;;;3.20;1.60;;;;;;;;;;5079101;28;20180;-78
2022/09/16 08:31:09;;;;;;;3.17;1.73;;;;;;;;;;5083616;28;20177;-78
2022/09/16 08:33:38;;;;;;;2.67;1.60;;;;;;;;;;5085054;28;20828;-78
2022/09/16 08:36:07;;;;;;;4.27;1.57;;;;;;;;;;5093402;28;20613;-77
2022/09/16 08:38:35;;;;;;;4.30;1.87;;;;;;;;;;5085074;28;20187;-77
2022/09/16 08:41:18;;;;;;;3.07;1.80;;;;;;;;;;5084018;28;20257;-78
2022/09/16 08:43:51;;;;;;;6.80;1.60;;;;;;;;;;5081863;28;20218;-77
2022/09/16 08:46:22;;;;;;;5.77;1.73;;;;;;;;;;5083002;28;20176;-77
2022/09/16 08:48:53;;;;;;;6.17;1.70;;;;;;;;;;5079806;28;20649;-78
2022/09/16 08:51:20;;;;;;;3.23;1.70;;;;;;;;;;5085040;28;20192;-77
2022/09/16 08:53:50;;;;;;;4.47;1.70;;;;;;;;;;5082833;28;20271;-77
2022/09/16 08:56:20;;;;;;;5.40;1.80;;;;;;;;;;5085891;28;20713;-77
2022/09/16 08:58:50;;;;;;;3.53;1.73;;;;;;;;;;5080916;28;20268;-77
2022/09/16 09:01:19;;;;;;;3.17;1.70;;;;;;;;;;5084079;28;20207;-78
2022/09/16 09:03:46;;;;;;;4.40;1.77;;;;;;;;;;5076599;28;20509;-77
2022/09/16 09:06:12;;;;;;;2.83;1.30;;;;;;;;;;5084072;28;20172;-77
2022/09/16 09:08:45;;;;;;;4.37;1.50;;;;;;;;;;5077524;28;20196;-78
2022/09/16 09:11:37;;;;;;;4.83;1.40;;;;;;;;;;5081822;28;20177;-76
2022/09/16 09:14:03;;;;;;;6.80;1.80;;;;;;;;;;5061322;28;20244;-78
2022/09/16 09:16:34;;;;;;;3.87;1.47;;;;;;;;;;5076829;28;20694;-78
2022/09/16 09:19:09;;;;;;;3.10;1.43;;;;;;;;;;5078111;28;20235;-77
2022/09/16 09:21:46;;;;;;;3.40;1.50;;;;;;;;;;5082809;28;20196;-77
2022/09/16 09:24:22;;;;;;;4.03;1.60;;;;;;;;;;5077836;28;20500;-77
2022/09/16 09:26:50;;;;;;;3.17;1.40;;;;;;;;;;5082418;28;20781;-77
2022/09/16 09:29:28;;;;;;;6.37;1.20;;;;;;;;;;5076462;28;20200;-78
2022/09/16 09:32:14;;;;;;;5.07;1.50;;;;;;;;;;5080063;28;20842;-78
2022/09/16 09:34:43;;;;;;;4.90;1.50;;;;;;;;;;5075291;28;20249;-77
2022/09/16 09:37:30;;;;;;;3.40;1.50;;;;;;;;;;5083243;28;20551;-75
2022/09/16 09:40:18;;;;;;;2.90;1.30;;;;;;;;;;5073194;28;20247;-76
2022/09/16 09:42:44;;;;;;;2.90;1.30;;;;;;;;;;5084177;28;20454;-76
2022/09/16 09:45:14;;;;;;;1.90;1.10;;;;;;;;;;5084153;28;20223;-74
2022/09/16 09:47:42;;;;;;;5.20;1.07;;;;;;;;;;5082995;28;20663;-74
2022/09/16 09:50:21;;;;;;;1.97;1.27;;;;;;;;;;5076024;28;20291;-76
2022/09/16 09:53:07;;;;;;;2.13;1.27;;;;;;;;;;5075841;28;20182;-74
2022/09/16 09:55:34;;;;;;;2.00;1.27;;;;;;;;;;5065824;28;20196;-74
2022/09/16 09:58:08;;;;;;;3.37;1.10;;;;;;;;;;5080528;28;20238;-78
2022/09/16 10:00:35;;;;;;;6.10;1.50;;;;;;;;;;5078179;28;20274;-76
2022/09/16 10:03:03;;;;;;;1.80;1.10;;;;;;;;;;5084928;28;20305;-76
2022/09/16 10:05:31;;;;;;;3.23;1.20;;;;;;;;;;5080368;28;20228;-76
2022/09/16 10:08:13;;;;;;;2.67;1.13;;;;;;;;;;5076402;28;20795;-79
2022/09/16 10:10:45;;;;;;;4.03;1.23;;;;;;;;;;5087912;28;20200;-77
2022/09/16 10:13:12;;;;;;;3.07;1.10;;;;;;;;;;5075862;28;21428;-77
2022/09/16 10:15:39;;;;;;;2.90;1.10;;;;;;;;;;5082595;28;20703;-78
2022/09/16 10:18:34;;;;;;;2.37;1.20;;;;;;;;;;5082702;28;20176;-77
2022/09/16 10:21:08;;;;;;;4.00;1.20;;;;;;;;;;5059028;28;20211;-77
2022/09/16 10:23:35;;;;;;;1.83;1.00;;;;;;;;;;5080605;28;20274;-77
2022/09/16 10:26:16;;;;;;;1.80;1.23;;;;;;;;;;5081686;28;20185;-76
2022/09/16 10:28:52;;;;;;;3.67;1.23;;;;;;;;;;5074266;28;20176;-77
2022/09/16 10:31:19;;;;;;;5.60;1.33;;;;;;;;;;5080885;28;20180;-76
2022/09/16 10:33:45;;;;;;;2.97;1.20;;;;;;;;;;5081232;28;20192;-76
2022/09/16 10:36:19;;;;;;;3.93;1.47;;;;;;;;;;5080633;28;20649;-76
2022/09/16 10:38:56;;;;;;;2.80;1.40;;;;;;;;;;5080221;28;20196;-76
2022/09/16 10:41:25;;;;;;;3.20;1.20;;;;;;;;;;5077588;28;20191;-76
2022/09/16 10:43:53;;;;;;;5.03;1.40;;;;;;;;;;5082379;28;20205;-77
2022/09/16 10:46:19;;;;;;;2.40;1.30;;;;;;;;;;5081064;28;20560;-76
2022/09/16 10:48:46;;;;;;;2.50;1.20;;;;;;;;;;5069748;28;21147;-76
2022/09/16 10:51:26;;;;;;;4.20;1.50;;;;;;;;;;5069918;28;20184;-77
2022/09/16 10:53:54;;;;;;;5.67;1.60;;;;;;;;;;5071137;28;20253;-78
2022/09/16 10:56:34;;;;;;;5.17;1.10;;;;;;;;;;5073287;28;20192;-77
2022/09/16 10:59:11;;;;;;;3.97;1.10;;;;;;;;;;5075325;28;20777;-77
2022/09/16 11:01:55;;;;;;;3.83;1.40;;;;;;;;;;5074819;28;20340;-77
2022/09/16 11:04:44;;;;;;;2.73;1.40;;;;;;;;;;5078848;28;20196;-80
2022/09/16 11:07:30;;;;;;;3.07;1.10;;;;;;;;;;5057533;28;20740;-77
2022/09/16 11:09:56;;;;;;;1.80;1.20;;;;;;;;;;5078291;28;20242;-77
2022/09/16 11:12:42;;;;;;;2.47;1.13;;;;;;;;;;5079991;28;20193;-77
2022/09/16 11:15:11;;;;;;;2.03;0.97;;;;;;;;;;5083049;28;20652;-78
2022/09/16 11:17:51;;;;;;;2.93;1.40;;;;;;;;;;5082174;28;20184;-76
2022/09/16 11:20:31;;;;;;;1.90;0.80;;;;;;;;;;5082472;28;20247;-76
2022/09/16 11:23:10;;;;;;;1.47;0.93;;;;;;;;;;5079655;28;20223;-77
2022/09/16 11:25:55;;;;;;;1.57;1.10;;;;;;;;;;5087587;28;20215;-77
2022/09/16 11:28:24;;;;;;;2.33;1.00;;;;;;;;;;5079734;28;20189;-78
2022/09/16 11:30:58;;;;;;;1.90;0.90;;;;;;;;;;5083760;28;20446;-77
2022/09/16 11:33:41;;;;;;;2.97;1.00;;;;;;;;;;5079110;28;20204;-77
2022/09/16 11:36:07;;;;;;;4.03;1.10;;;;;;;;;;5088759;28;20180;-79
2022/09/16 11:38:38;;;;;;;7.90;1.40;;;;;;;;;;5089511;28;20674;-80
2022/09/16 11:41:15;;;;;;;5.23;1.00;;;;;;;;;;5075802;28;20188;-79
2022/09/16 11:43:44;;;;;;;3.03;1.10;;;;;;;;;;5081128;28;20651;-78
2022/09/16 11:46:10;;;;;;;1.83;1.10;;;;;;;;;;5078280;28;20219;-79
2022/09/16 11:48:51;;;;;;;3.47;1.10;;;;;;;;;;5083683;28;20732;-78
2022/09/16 11:51:36;;;;;;;3.33;1.10;;;;;;;;;;5082677;28;20205;-77
2022/09/16 11:54:20;;;;;;;1.73;0.90;;;;;;;;;;5085867;28;20212;-78
2022/09/16 11:56:48;;;;;;;3.00;1.50;;;;;;;;;;5084829;28;20195;-78
2022/09/16 11:59:20;;;;;;;4.17;1.30;;;;;;;;;;5081990;28;20216;-78
2022/09/16 12:01:52;;;;;;;1.50;0.97;;;;;;;;;;5080665;28;20187;-77
2022/09/16 12:04:27;;;;;;;2.97;1.00;;;;;;;;;;5085916;28;20211;-78
2022/09/16 12:06:57;;;;;;;1.93;1.00;;;;;;;;;;5087751;28;20176;-78
2022/09/16 12:09:31;;;;;;;2.43;1.00;;;;;;;;;;5080068;28;20192;-80
2022/09/16 12:12:03;;;;;;;2.00;1.03;;;;;;;;;;5087053;28;20184;-79
2022/09/16 12:14:33;;;;;;;2.57;1.20;;;;;;;;;;5087129;28;20249;-77
2022/09/16 12:17:03;;;;;;;1.67;0.90;;;;;;;;;;5086147;28;20683;-77
2022/09/16 12:19:33;;;;;;;2.50;1.20;;;;;;;;;;5082770;28;21770;-77
2022/09/16 12:22:07;;;;;;;1.57;0.90;;;;;;;;;;5087707;28;20192;-80
2022/09/16 12:24:46;;;;;;;1.30;0.90;;;;;;;;;;5082531;28;20200;-78
2022/09/16 12:27:12;;;;;;;1.07;0.80;;;;;;;;;;5061548;28;20998;-74
2022/09/16 12:29:58;;;;;;;1.23;0.70;;;;;;;;;;5088638;28;20847;-77
2022/09/16 12:32:50;;;;;;;1.60;0.90;;;;;;;;;;5085926;28;20256;-76
2022/09/16 12:35:42;;;;;;;2.27;1.00;;;;;;;;;;5086272;28;20629;-78
2022/09/16 12:38:18;;;;;;;1.43;0.90;;;;;;;;;;5083037;28;20204;-76
2022/09/16 12:41:03;;;;;;;1.50;0.90;;;;;;;;;;5075393;28;20219;-77
2022/09/16 12:43:48;;;;;;;1.43;0.80;;;;;;;;;;5080665;28;20245;-76
2022/09/16 12:46:22;;;;;;;1.93;0.90;;;;;;;;;;5076372;28;20201;-76
2022/09/16 12:49:07;;;;;;;1.73;1.00;;;;;;;;;;5076161;28;20736;-76
2022/09/16 12:51:33;;;;;;;2.40;1.07;;;;;;;;;;5080155;28;20675;-79
2022/09/16 12:53:59;;;;;;;2.00;1.10;;;;;;;;;;5063119;28;20227;-78
2022/09/16 12:56:31;;;;;;;1.93;1.00;;;;;;;;;;5062145;28;20290;-79
2022/09/16 12:59:16;;;;;;;1.23;0.80;;;;;;;;;;5081414;28;20234;-80
2022/09/16 13:01:44;;;;;;;2.10;0.93;;;;;;;;;;5060681;28;20289;-80
2022/09/16 13:04:11;;;;;;;4.57;0.70;;;;;;;;;;5078292;28;20211;-81
2022/09/16 13:06:39;;;;;;;2.60;0.93;;;;;;;;;;5065087;28;20841;-80
2022/09/16 13:09:35;;;;;;;1.43;0.90;;;;;;;;;;5080768;28;20193;-79
2022/09/16 13:12:02;;;;;;;2.27;1.00;;;;;;;;;;5082796;28;20184;-79
2022/09/16 13:14:30;;;;;;;1.63;0.90;;;;;;;;;;5078752;28;20202;-80
2022/09/16 13:16:58;;;;;;;1.10;0.80;;;;;;;;;;5060400;28;20193;-80
2022/09/16 13:19:28;;;;;;;1.23;0.80;;;;;;;;;;5061543;28;20311;-80
2022/09/16 13:21:56;;;;;;;1.60;0.90;;;;;;;;;;5067456;28;20269;-80
2022/09/16 13:24:38;;;;;;;1.53;1.00;;;;;;;;;;5083355;28;20193;-80
2022/09/16 13:27:24;;;;;;;1.57;1.00;;;;;;;;;;5079037;28;20271;-80
2022/09/16 13:29:50;;;;;;;1.37;0.90;;;;;;;;;;5078750;28;20199;-82
2022/09/16 13:32:48;;;;;;;2.63;1.03;;;;;;;;;;5082529;28;20180;-81
2022/09/16 13:35:18;;;;;;;3.67;1.03;;;;;;;;;;5034952;28;20185;-83
2022/09/16 13:37:45;;;;;;;2.63;1.10;;;;;;;;;;5075420;28;20180;-79
2022/09/16 13:40:20;;;;;;;2.53;0.97;;;;;;;;;;5082371;28;20209;-79
2022/09/16 13:42:46;;;;;;;2.53;1.07;;;;;;;;;;5080627;28;20422;-79
2022/09/16 13:45:32;;;;;;;3.70;1.20;;;;;;;;;;5076718;28;20250;-80
2022/09/16 13:48:00;;;;;;;2.60;1.20;;;;;;;;;;5081782;28;20192;-79
2022/09/16 13:50:27;;;;;;;1.77;1.10;;;;;;;;;;5082219;28;20550;-80
2022/09/16 13:52:54;;;;;;;1.20;1.00;;;;;;;;;;5083493;28;20234;-79
2022/09/16 13:55:22;;;;;;;3.03;1.43;;;;;;;;;;5083990;28;20184;-79
2022/09/16 13:57:51;;;;;;;1.40;1.10;;;;;;;;;;5076685;28;20200;-79
2022/09/16 14:00:30;;;;;;;1.03;0.73;;;;;;;;;;5066829;28;20204;-79
2022/09/16 14:02:59;;;;;;;1.57;0.90;;;;;;;;;;5084263;28;20211;-79
2022/09/16 14:05:35;;;;;;;1.83;0.90;;;;;;;;;;5066710;28;20253;-80
2022/09/16 14:08:20;;;;;;;1.17;0.90;;;;;;;;;;5075043;28;20256;-79
2022/09/16 14:10:53;;;;;;;1.73;0.80;;;;;;;;;;5075154;28;20210;-78
2022/09/16 14:13:21;;;;;;;0.80;0.80;;;;;;;;;;5081714;28;20183;-79
2022/09/16 14:15:55;;;;;;;0.73;0.70;;;;;;;;;;5075550;28;20432;-79
2022/09/16 14:18:27;;;;;;;1.30;0.90;;;;;;;;;;5081664;28;20214;-79
2022/09/16 14:21:04;;;;;;;0.90;0.90;;;;;;;;;;5082465;28;20231;-79
2022/09/16 14:23:31;;;;;;;2.30;0.97;;;;;;;;;;5082802;28;20180;-78
2022/09/16 14:26:12;;;;;;;2.33;1.30;;;;;;;;;;5082608;28;20394;-79
2022/09/16 14:28:38;;;;;;;1.33;1.10;;;;;;;;;;5082169;28;20657;-79
2022/09/16 14:31:19;;;;;;;2.40;1.13;;;;;;;;;;5075209;28;20663;-79
2022/09/16 14:33:48;;;;;;;1.70;1.10;;;;;;;;;;5087587;28;20215;-79
2022/09/16 14:36:18;;;;;;;1.10;1.00;;;;;;;;;;5083067;28;20267;-79
2022/09/16 14:38:47;;;;;;;1.10;1.00;;;;;;;;;;5083565;28;20476;-79
2022/09/16 14:41:37;;;;;;;1.80;0.97;;;;;;;;;;5078258;28;21049;-78
2022/09/16 14:44:10;;;;;;;3.17;1.00;;;;;;;;;;5075439;28;20686;-79
2022/09/16 14:46:44;;;;;;;1.63;1.10;;;;;;;;;;5061981;28;20237;-78
2022/09/16 14:49:12;;;;;;;1.33;0.90;;;;;;;;;;5088547;28;20198;-79
2022/09/16 14:51:39;;;;;;;1.47;1.00;;;;;;;;;;5078728;28;20180;-81
2022/09/16 14:54:05;;;;;;;2.87;1.20;;;;;;;;;;5063662;28;20183;-76
2022/09/16 14:56:31;;;;;;;5.10;1.10;;;;;;;;;;5086365;28;20231;-77
2022/09/16 14:58:57;;;;;;;2.30;1.10;;;;;;;;;;5086356;28;20200;-77
2022/09/16 15:01:25;;;;;;;1.30;1.00;;;;;;;;;;5081363;28;20186;-77
2022/09/16 15:03:57;;;;;;;2.27;0.90;;;;;;;;;;5086297;28;20205;-77